createdAt,value
2022-11-29T00:01:23.332Z,19.15
2022-11-29T00:03:50.117Z,21.85
2022-11-29T00:06:18.908Z,24.65
2022-11-29T00:08:45.481Z,20.10
2022-11-29T00:11:16.463Z,20.92
2022-11-29T00:13:42.867Z,23.80
2022-11-29T00:16:10.543Z,23.00
2022-11-29T00:18:37.050Z,23.08
2022-11-29T00:21:07.448Z,25.00
2022-11-29T00:23:34.338Z,20.38
2022-11-29T00:26:05.226Z,22.85
2022-11-29T00:28:31.616Z,24.75
2022-11-29T00:30:58.072Z,22.25
2022-11-29T00:33:24.513Z,28.08
2022-11-29T00:35:50.955Z,28.15
2022-11-29T00:38:17.332Z,25.13
2022-11-29T00:40:43.832Z,24.77
2022-11-29T00:43:10.226Z,26.40
2022-11-29T00:45:36.690Z,26.60
2022-11-29T00:48:03.100Z,26.05
2022-11-29T00:50:29.471Z,28.83
2022-11-29T00:52:55.875Z,26.30
2022-11-29T00:55:22.261Z,27.67
2022-11-29T00:57:48.684Z,28.17
2022-11-29T01:00:15.720Z,22.30
2022-11-29T01:02:42.161Z,28.65
2022-11-29T01:05:08.754Z,25.70
2022-11-29T01:07:35.196Z,26.65
2022-11-29T01:10:01.604Z,26.63
2022-11-29T01:12:28.014Z,27.33
2022-11-29T01:14:54.521Z,30.60
2022-11-29T01:17:20.923Z,29.30
2022-11-29T01:19:50.778Z,28.90
2022-11-29T01:22:17.581Z,23.30
2022-11-29T01:24:44.279Z,28.20
2022-11-29T01:27:11.052Z,29.15
2022-11-29T01:29:37.450Z,30.17
2022-11-29T01:32:04.054Z,26.25
2022-11-29T01:34:30.538Z,30.00
2022-11-29T01:36:56.928Z,25.35
2022-11-29T01:39:23.333Z,24.45
2022-11-29T01:41:49.766Z,25.55
2022-11-29T01:44:16.050Z,28.63
2022-11-29T01:46:43.828Z,30.10
2022-11-29T01:49:23.050Z,26.45
2022-11-29T01:52:25.767Z,29.30
2022-11-29T01:54:55.669Z,33.53
2022-11-29T01:59:49.647Z,29.75
2022-11-29T02:02:20.818Z,28.55
2022-11-29T02:04:47.540Z,29.67
2022-11-29T02:07:14.278Z,33.05
2022-11-29T02:09:40.741Z,30.25
2022-11-29T02:12:25.312Z,27.00
2022-11-29T02:15:18.674Z,32.90
2022-11-29T02:18:00.039Z,32.42
2022-11-29T02:20:35.653Z,28.70
2022-11-29T02:23:16.952Z,28.92
2022-11-29T02:25:57.842Z,30.70
2022-11-29T02:28:24.142Z,30.23
2022-11-29T02:30:57.583Z,35.30
2022-11-29T02:33:44.211Z,29.05
2022-11-29T02:36:16.364Z,32.17
2022-11-29T02:38:57.945Z,31.65
2022-11-29T02:41:42.717Z,33.33
2022-11-29T02:44:14.844Z,28.88
2022-11-29T02:46:59.537Z,32.50
2022-11-29T02:50:03.452Z,30.05
2022-11-29T02:52:36.926Z,32.08
2022-11-29T02:55:15.923Z,35.75
2022-11-29T02:57:56.096Z,31.88
2022-11-29T03:00:22.485Z,30.00
2022-11-29T03:02:51.932Z,37.40
2022-11-29T03:05:37.199Z,33.13
2022-11-29T03:08:21.773Z,30.95
2022-11-29T03:10:58.087Z,31.83
2022-11-29T03:13:46.423Z,31.70
2022-11-29T03:16:23.600Z,30.15
2022-11-29T03:19:21.340Z,35.25
2022-11-29T03:22:12.825Z,30.23
2022-11-29T03:24:49.043Z,29.38
2022-11-29T03:27:23.878Z,32.15
2022-11-29T03:29:58.878Z,32.92
2022-11-29T03:32:54.530Z,33.83
2022-11-29T03:35:40.844Z,35.10
2022-11-29T03:38:43.790Z,29.85
2022-11-29T03:41:10.132Z,27.60
2022-11-29T03:43:41.866Z,31.70
2022-11-29T03:46:15.995Z,32.70
2022-11-29T03:48:46.745Z,29.40
2022-11-29T03:51:26.441Z,33.10
2022-11-29T03:53:57.220Z,35.45
2022-11-29T03:56:34.500Z,34.25
2022-11-29T03:59:03.739Z,34.00
2022-11-29T04:01:55.061Z,34.83
2022-11-29T04:04:53.405Z,29.35
2022-11-29T04:07:28.666Z,35.30
2022-11-29T04:10:17.123Z,34.30
2022-11-29T04:13:11.772Z,37.28
2022-11-29T04:15:50.062Z,35.55
2022-11-29T04:18:34.807Z,33.58
2022-11-29T04:21:04.057Z,33.67
2022-11-29T04:23:52.255Z,33.53
2022-11-29T04:26:34.978Z,32.92
2022-11-29T04:29:20.211Z,33.90
2022-11-29T04:32:20.600Z,31.63
2022-11-29T04:34:58.760Z,32.85
2022-11-29T04:37:42.157Z,34.05
2022-11-29T04:40:23.605Z,35.13
2022-11-29T04:42:52.969Z,35.05
2022-11-29T04:45:36.031Z,34.05
2022-11-29T04:48:39.046Z,30.58
2022-11-29T04:51:14.433Z,31.23
2022-11-29T04:53:57.189Z,34.55
2022-11-29T04:56:42.225Z,33.95
2022-11-29T04:59:18.104Z,34.08
2022-11-29T05:02:07.189Z,34.85
2022-11-29T05:05:00.839Z,38.55
2022-11-29T05:07:56.314Z,32.53
2022-11-29T05:10:35.283Z,38.03
2022-11-29T05:13:19.875Z,33.58
2022-11-29T05:16:08.215Z,33.05
2022-11-29T05:18:59.241Z,34.42
2022-11-29T05:21:34.505Z,34.08
2022-11-29T05:24:11.953Z,38.25
2022-11-29T05:26:48.531Z,36.25
2022-11-29T05:29:29.818Z,36.70
2022-11-29T05:32:02.113Z,35.88
2022-11-29T05:34:37.546Z,35.53
2022-11-29T05:37:22.654Z,32.90
2022-11-29T05:40:11.458Z,38.40
2022-11-29T05:43:07.095Z,36.17
2022-11-29T05:45:53.298Z,34.08
2022-11-29T05:48:57.294Z,37.13
2022-11-29T05:51:29.625Z,35.72
2022-11-29T05:54:23.521Z,39.22
2022-11-29T05:57:01.355Z,40.40
2022-11-29T05:59:28.549Z,36.65
2022-11-29T06:02:16.714Z,35.20
2022-11-29T06:05:12.819Z,32.95
2022-11-29T06:07:41.676Z,37.72
2022-11-29T06:10:12.084Z,35.92
2022-11-29T06:12:38.857Z,36.80
2022-11-29T06:15:56.955Z,34.75
2022-11-29T06:18:44.915Z,41.45
2022-11-29T06:21:29.118Z,36.28
2022-11-29T06:24:26.221Z,35.30
2022-11-29T06:27:29.744Z,36.03
2022-11-29T06:30:18.137Z,35.30
2022-11-29T06:33:05.836Z,39.72
2022-11-29T06:38:27.485Z,34.85
2022-11-29T06:41:00.098Z,36.97
2022-11-29T06:43:28.325Z,46.83
2022-11-29T06:46:10.336Z,38.47
2022-11-29T06:48:47.210Z,37.88
2022-11-29T06:51:31.475Z,38.83
2022-11-29T06:54:33.243Z,39.72
2022-11-29T06:57:34.504Z,36.40
2022-11-29T07:00:08.898Z,34.53
2022-11-29T07:02:44.432Z,36.40
2022-11-29T07:05:30.160Z,40.10
2022-11-29T07:08:16.529Z,37.35
2022-11-29T07:10:43.578Z,36.85
2022-11-29T07:13:13.312Z,38.47
2022-11-29T07:15:51.333Z,39.50
2022-11-29T07:18:27.820Z,43.53
2022-11-29T07:21:07.277Z,35.03
2022-11-29T07:24:01.642Z,35.88
2022-11-29T07:26:40.224Z,34.28
2022-11-29T07:29:06.570Z,39.00
2022-11-29T07:31:45.710Z,36.33
2022-11-29T07:34:23.497Z,37.50
2022-11-29T07:37:13.095Z,38.33
2022-11-29T07:39:42.383Z,40.35
2022-11-29T07:42:15.233Z,41.58
2022-11-29T07:45:15.298Z,37.22
2022-11-29T07:47:41.724Z,33.13
2022-11-29T07:50:08.341Z,38.15
2022-11-29T07:52:34.819Z,35.15
2022-11-29T07:55:01.783Z,36.50
2022-11-29T07:57:28.230Z,35.83
2022-11-29T07:59:54.654Z,38.72
2022-11-29T08:02:33.840Z,36.88
2022-11-29T08:05:00.442Z,36.33
2022-11-29T08:07:31.173Z,35.65
2022-11-29T08:09:58.831Z,37.58
2022-11-29T08:12:25.978Z,38.75
2022-11-29T08:14:52.495Z,39.00
2022-11-29T08:17:18.882Z,33.63
2022-11-29T08:19:45.356Z,37.83
2022-11-29T08:22:12.308Z,38.33
2022-11-29T08:24:38.713Z,33.88
2022-11-29T08:27:05.161Z,38.53
2022-11-29T08:29:31.566Z,37.72
2022-11-29T08:31:58.072Z,34.55
2022-11-29T08:34:24.635Z,41.95
2022-11-29T08:36:51.153Z,37.95
2022-11-29T08:39:17.534Z,36.95
2022-11-29T08:41:43.941Z,36.15
2022-11-29T08:44:10.347Z,38.00
2022-11-29T08:46:36.764Z,36.28
2022-11-29T08:49:03.184Z,40.90
2022-11-29T08:51:29.576Z,42.22
2022-11-29T08:53:56.031Z,44.17
2022-11-29T08:59:08.845Z,42.88
2022-11-29T09:01:35.294Z,39.55
2022-11-29T09:04:01.758Z,37.50
2022-11-29T09:06:32.924Z,42.90
2022-11-29T09:08:59.649Z,35.47
2022-11-29T09:11:27.041Z,37.50
2022-11-29T09:13:55.669Z,38.28
2022-11-29T09:16:24.051Z,36.50
2022-11-29T09:18:52.186Z,38.65
2022-11-29T09:21:18.884Z,37.20
2022-11-29T09:23:45.626Z,36.63
2022-11-29T09:26:16.391Z,40.90
2022-11-29T09:28:42.787Z,34.75
2022-11-29T09:31:14.563Z,37.33
2022-11-29T09:33:41.105Z,38.00
2022-11-29T09:36:08.630Z,36.22
2022-11-29T09:38:35.126Z,36.63
2022-11-29T09:41:21.638Z,33.00
2022-11-29T09:44:09.838Z,39.50
2022-11-29T09:46:58.945Z,31.63
2022-11-29T09:49:40.343Z,34.75
2022-11-29T09:52:36.835Z,34.47
2022-11-29T09:55:26.419Z,35.53
2022-11-29T09:57:53.213Z,36.60
2022-11-29T10:00:20.089Z,37.60
2022-11-29T10:02:52.937Z,39.80
2022-11-29T10:05:28.730Z,30.27
2022-11-29T10:10:42.800Z,31.92
2022-11-29T10:13:41.958Z,38.47
2022-11-29T10:16:36.119Z,36.75
2022-11-29T10:19:05.861Z,33.70
2022-11-29T10:21:36.466Z,36.25
2022-11-29T10:24:05.017Z,35.30
2022-11-29T10:26:35.141Z,37.53
2022-11-29T10:29:02.043Z,39.58
2022-11-29T10:31:38.113Z,36.45
2022-11-29T10:34:13.662Z,39.83
2022-11-29T10:36:51.007Z,34.92
2022-11-29T10:39:52.263Z,34.97
2022-11-29T10:42:20.734Z,34.88
2022-11-29T10:44:47.429Z,37.47
2022-11-29T10:47:13.987Z,33.72
2022-11-29T10:49:40.477Z,37.03
2022-11-29T10:52:19.469Z,39.95
2022-11-29T10:54:46.090Z,36.15
2022-11-29T10:57:22.105Z,41.65
2022-11-29T11:00:09.482Z,37.10
2022-11-29T11:02:35.958Z,37.45
2022-11-29T11:05:03.023Z,41.42
2022-11-29T11:07:33.474Z,38.55
2022-11-29T11:09:59.987Z,41.00
2022-11-29T11:12:28.411Z,41.90
2022-11-29T11:15:13.157Z,39.17
2022-11-29T11:17:39.559Z,34.72
2022-11-29T11:20:18.939Z,36.83
2022-11-29T11:22:45.345Z,45.60
2022-11-29T11:25:38.351Z,38.40
2022-11-29T11:28:20.817Z,36.75
2022-11-29T11:30:58.292Z,39.42
2022-11-29T11:33:26.475Z,41.03
2022-11-29T11:36:21.596Z,40.10
2022-11-29T11:39:10.712Z,33.75
2022-11-29T11:41:43.258Z,38.92
2022-11-29T11:44:45.681Z,40.78
2022-11-29T11:47:16.067Z,39.65
2022-11-29T11:50:00.670Z,38.28
2022-11-29T11:52:41.351Z,40.63
2022-11-29T11:55:22.106Z,41.85
2022-11-29T11:58:13.636Z,36.17
2022-11-29T12:01:02.967Z,37.65
2022-11-29T12:03:40.063Z,37.97
2022-11-29T12:06:35.194Z,38.13
2022-11-29T12:09:30.837Z,44.63
2022-11-29T12:12:03.371Z,40.28
2022-11-29T12:14:38.353Z,39.20
2022-11-29T12:17:37.103Z,39.58
2022-11-29T12:20:09.678Z,42.90
2022-11-29T12:22:58.102Z,42.50
2022-11-29T12:25:27.013Z,35.78
2022-11-29T12:27:53.437Z,44.67
2022-11-29T12:30:19.876Z,39.20
2022-11-29T12:32:49.902Z,42.15
2022-11-29T12:35:57.936Z,42.35
2022-11-29T12:38:52.226Z,42.85
2022-11-29T12:41:39.961Z,39.28
2022-11-29T12:46:38.798Z,33.45
2022-11-29T12:49:17.174Z,45.10
2022-11-29T12:51:55.603Z,41.72
2022-11-29T12:54:40.815Z,46.25
2022-11-29T12:57:25.402Z,41.63
2022-11-29T13:00:00.843Z,41.67
2022-11-29T13:02:31.420Z,38.15
2022-11-29T13:05:09.612Z,37.80
2022-11-29T13:07:39.039Z,44.55
2022-11-29T13:10:18.005Z,42.00
2022-11-29T13:12:47.812Z,44.85
2022-11-29T13:15:19.430Z,44.65
2022-11-29T13:18:23.876Z,42.60
2022-11-29T13:20:50.579Z,43.20
2022-11-29T13:23:45.474Z,43.83
2022-11-29T13:26:12.717Z,44.97
2022-11-29T13:28:42.594Z,39.25
2022-11-29T13:31:27.223Z,41.85
2022-11-29T13:34:04.137Z,43.50
2022-11-29T13:37:07.447Z,38.47
2022-11-29T13:39:56.002Z,37.83
2022-11-29T13:42:34.152Z,38.67
2022-11-29T13:45:28.456Z,40.35
2022-11-29T13:47:57.623Z,43.13
2022-11-29T13:50:39.911Z,40.47
2022-11-29T13:53:21.404Z,38.88
2022-11-29T13:55:50.002Z,46.25
2022-11-29T13:58:28.598Z,44.03
2022-11-29T14:01:00.246Z,43.92
2022-11-29T14:03:38.764Z,39.67
2022-11-29T14:06:15.211Z,36.80
2022-11-29T14:11:48.875Z,49.17
2022-11-29T14:14:21.516Z,39.78
2022-11-29T14:16:50.418Z,47.50
2022-11-29T14:19:24.704Z,39.22
2022-11-29T14:22:16.741Z,40.30
2022-11-29T14:24:43.617Z,43.25
2022-11-29T14:27:13.225Z,46.28
2022-11-29T14:29:48.896Z,43.92
2022-11-29T14:32:46.377Z,43.40
2022-11-29T14:35:12.958Z,44.13
2022-11-29T14:38:10.257Z,40.22
2022-11-29T14:40:46.479Z,49.05
2022-11-29T14:43:32.564Z,44.75
2022-11-29T14:46:14.171Z,49.08
2022-11-29T14:48:55.561Z,47.05
2022-11-29T14:51:23.040Z,45.20
2022-11-29T14:54:00.598Z,45.38
2022-11-29T14:56:30.136Z,42.33
2022-11-29T14:59:34.085Z,47.58
2022-11-29T15:02:19.439Z,44.90
2022-11-29T15:04:46.530Z,44.28
2022-11-29T15:07:15.113Z,45.60
2022-11-29T15:09:41.529Z,41.50
2022-11-29T15:12:28.562Z,47.33
2022-11-29T15:15:10.296Z,46.50
2022-11-29T15:20:38.680Z,43.03
2022-11-29T15:23:07.622Z,45.53
2022-11-29T15:25:34.350Z,47.15
2022-11-29T15:28:02.522Z,45.83
2022-11-29T15:30:44.428Z,49.83
2022-11-29T15:33:22.505Z,42.72
2022-11-29T15:35:53.994Z,47.78
2022-11-29T15:38:21.135Z,48.70
2022-11-29T15:40:51.273Z,46.25
2022-11-29T15:43:21.724Z,50.80
2022-11-29T15:45:52.331Z,49.15
2022-11-29T15:48:18.692Z,52.55
2022-11-29T15:51:02.276Z,49.85
2022-11-29T15:53:42.199Z,44.35
2022-11-29T15:56:50.398Z,46.10
2022-11-29T15:59:22.318Z,42.47
2022-11-29T16:01:50.013Z,41.85
2022-11-29T16:04:19.509Z,46.42
2022-11-29T16:06:45.942Z,42.22
2022-11-29T16:09:17.783Z,48.72
2022-11-29T16:11:44.305Z,46.78
2022-11-29T16:14:10.605Z,55.78
2022-11-29T16:16:37.755Z,43.83
2022-11-29T16:19:21.845Z,41.40
2022-11-29T16:22:10.145Z,46.90
2022-11-29T16:24:40.962Z,47.20
2022-11-29T16:27:07.390Z,53.75
2022-11-29T16:29:38.143Z,49.40
2022-11-29T16:32:26.327Z,44.42
2022-11-29T16:34:52.850Z,49.50
2022-11-29T16:37:26.484Z,46.67
2022-11-29T16:39:56.959Z,43.30
2022-11-29T16:42:33.258Z,45.92
2022-11-29T16:45:02.850Z,46.58
2022-11-29T16:47:30.774Z,50.13
2022-11-29T16:50:08.862Z,48.33
2022-11-29T16:52:37.744Z,45.53
2022-11-29T16:55:04.321Z,48.83
2022-11-29T16:57:30.825Z,44.03
2022-11-29T16:59:57.544Z,43.72
2022-11-29T17:02:24.051Z,50.72
2022-11-29T17:04:50.954Z,45.10
2022-11-29T17:07:31.811Z,49.17
2022-11-29T17:09:58.302Z,43.95
2022-11-29T17:12:24.863Z,49.05
2022-11-29T17:14:51.270Z,49.42
2022-11-29T17:17:18.375Z,42.05
2022-11-29T17:19:44.895Z,47.53
2022-11-29T17:22:11.752Z,47.10
2022-11-29T17:24:43.548Z,49.05
2022-11-29T17:29:40.266Z,47.03
2022-11-29T17:32:06.776Z,42.08
2022-11-29T17:34:33.310Z,49.08
2022-11-29T17:36:59.710Z,47.33
2022-11-29T17:39:32.097Z,46.42
2022-11-29T17:41:58.555Z,49.95
2022-11-29T17:44:25.081Z,44.92
2022-11-29T17:46:51.659Z,51.05
2022-11-29T17:49:18.032Z,53.67
2022-11-29T17:51:53.088Z,49.17
2022-11-29T17:54:20.441Z,44.67
2022-11-29T17:56:46.872Z,51.53
2022-11-29T17:59:13.259Z,53.17
2022-11-29T18:01:39.795Z,49.78
2022-11-29T18:04:06.319Z,52.15
2022-11-29T18:06:37.287Z,53.80
2022-11-29T18:09:04.447Z,46.97
2022-11-29T18:11:45.339Z,49.13
2022-11-29T18:14:15.838Z,47.50
2022-11-29T18:16:42.389Z,51.63
2022-11-29T18:19:11.193Z,49.08
2022-11-29T18:21:37.681Z,48.00
2022-11-29T18:24:05.072Z,55.85
2022-11-29T18:26:31.954Z,54.00
2022-11-29T18:28:58.822Z,51.78
2022-11-29T18:31:28.159Z,49.65
2022-11-29T18:33:56.843Z,56.30
2022-11-29T18:36:31.249Z,51.75
2022-11-29T18:38:59.229Z,57.10
2022-11-29T18:41:26.006Z,51.00
2022-11-29T18:44:03.340Z,53.97
2022-11-29T18:46:29.876Z,53.58
2022-11-29T18:48:56.333Z,55.33
2022-11-29T18:51:22.872Z,52.33
2022-11-29T18:53:49.297Z,56.92
2022-11-29T18:56:17.502Z,56.15
2022-11-29T18:58:44.870Z,51.08
2022-11-29T19:01:13.058Z,51.50
2022-11-29T19:03:41.359Z,59.20
2022-11-29T19:06:09.733Z,49.58
2022-11-29T19:08:36.286Z,49.33
2022-11-29T19:11:06.302Z,50.08
2022-11-29T19:13:33.104Z,59.83
2022-11-29T19:15:59.724Z,49.38
2022-11-29T19:18:26.181Z,52.60
2022-11-29T19:20:52.605Z,59.10
2022-11-29T19:23:19.875Z,56.45
2022-11-29T19:25:46.471Z,52.53
2022-11-29T19:28:14.375Z,51.78
2022-11-29T19:30:41.058Z,57.33
2022-11-29T19:33:07.895Z,54.47
2022-11-29T19:35:34.631Z,51.83
2022-11-29T19:38:01.016Z,52.38
2022-11-29T19:40:27.442Z,57.17
2022-11-29T19:42:53.851Z,56.30
2022-11-29T19:45:20.283Z,53.45
2022-11-29T19:47:46.684Z,52.88
2022-11-29T19:50:13.089Z,52.55
2022-11-29T19:52:39.514Z,48.90
2022-11-29T19:55:06.268Z,56.95
2022-11-29T19:57:33.036Z,50.85
2022-11-29T19:59:59.513Z,55.17
2022-11-29T20:02:27.021Z,51.58
2022-11-29T20:04:53.709Z,57.13
2022-11-29T20:07:20.422Z,56.05
2022-11-29T20:09:47.558Z,57.20
2022-11-29T20:12:14.244Z,54.33
2022-11-29T20:14:40.677Z,51.90
2022-11-29T20:17:07.111Z,55.58
2022-11-29T20:19:34.047Z,56.08
2022-11-29T20:22:00.533Z,55.83
2022-11-29T20:24:27.014Z,54.00
2022-11-29T20:26:53.521Z,56.45
2022-11-29T20:29:20.008Z,56.65
2022-11-29T20:31:50.795Z,56.47
2022-11-29T20:34:18.028Z,52.45
2022-11-29T20:37:09.380Z,51.65
2022-11-29T20:39:44.029Z,51.22
2022-11-29T20:42:29.091Z,57.88
2022-11-29T20:44:57.357Z,54.88
2022-11-29T20:47:30.468Z,56.55
2022-11-29T20:49:57.136Z,53.67
2022-11-29T20:52:44.598Z,57.13
2022-11-29T20:55:13.718Z,58.80
2022-11-29T20:57:44.500Z,57.17
2022-11-29T21:00:11.847Z,56.55
2022-11-29T21:02:38.591Z,57.58
2022-11-29T21:05:05.824Z,59.65
2022-11-29T21:07:32.408Z,61.28
2022-11-29T21:10:01.348Z,58.63
2022-11-29T21:12:29.314Z,57.80
2022-11-29T21:14:56.112Z,49.00
2022-11-29T21:17:22.746Z,52.00
2022-11-29T21:19:52.139Z,56.95
2022-11-29T21:22:34.200Z,55.40
2022-11-29T21:25:31.226Z,53.85
2022-11-29T21:28:01.070Z,51.08
2022-11-29T21:32:56.608Z,49.28
2022-11-29T21:35:23.009Z,59.05
2022-11-29T21:37:49.447Z,53.50
2022-11-29T21:40:17.205Z,59.55
2022-11-29T21:42:43.701Z,60.22
2022-11-29T21:45:15.343Z,62.13
2022-11-29T21:47:43.744Z,60.90
2022-11-29T21:50:11.442Z,57.63
2022-11-29T21:52:40.199Z,62.30
2022-11-29T21:55:06.856Z,55.45
2022-11-29T21:57:33.269Z,63.97
2022-11-29T22:00:00.113Z,65.05
2022-11-29T22:02:26.644Z,61.95
2022-11-29T22:04:53.228Z,58.60
2022-11-29T22:07:19.684Z,59.13
2022-11-29T22:09:46.107Z,61.60
2022-11-29T22:12:32.341Z,57.03
2022-11-29T22:14:58.927Z,58.05
2022-11-29T22:17:25.359Z,57.60
2022-11-29T22:19:51.797Z,52.30
2022-11-29T22:22:18.227Z,53.38
2022-11-29T22:24:44.841Z,56.97
2022-11-29T22:27:11.595Z,59.10
2022-11-29T22:29:38.035Z,49.20
2022-11-29T22:32:04.704Z,59.80
2022-11-29T22:34:31.109Z,60.20
2022-11-29T22:36:57.539Z,54.85
2022-11-29T22:39:26.078Z,57.45
2022-11-29T22:41:54.891Z,60.05
2022-11-29T22:44:21.784Z,49.28
2022-11-29T22:46:48.493Z,49.85
2022-11-29T22:49:15.015Z,57.85
2022-11-29T22:51:41.499Z,56.03
2022-11-29T22:54:09.029Z,54.00
2022-11-29T22:56:36.870Z,53.83
2022-11-29T22:59:03.845Z,51.10
2022-11-29T23:01:31.227Z,51.92
2022-11-29T23:03:59.426Z,51.58
2022-11-29T23:06:30.335Z,57.58
2022-11-29T23:08:58.209Z,51.60
2022-11-29T23:11:28.401Z,54.83
2022-11-29T23:13:54.866Z,52.53
2022-11-29T23:16:23.291Z,59.45
2022-11-29T23:18:49.743Z,49.72
2022-11-29T23:21:31.418Z,54.22
2022-11-29T23:26:27.780Z,54.13
2022-11-29T23:28:54.529Z,54.30
2022-11-29T23:31:21.060Z,51.28
2022-11-29T23:33:47.595Z,45.92
2022-11-29T23:36:14.300Z,56.85
2022-11-29T23:38:40.715Z,60.97
2022-11-29T23:41:07.356Z,53.85
2022-11-29T23:43:35.722Z,51.00
2022-11-29T23:46:06.332Z,57.13
2022-11-29T23:48:32.827Z,55.78
2022-11-29T23:50:59.225Z,53.95
2022-11-29T23:53:25.650Z,51.20
2022-11-29T23:56:12.346Z,53.13
2022-11-29T23:58:38.870Z,48.60
